Time,TemperatureF,DewpointF,PressureIn,WindDirection,WindDirectionDegrees,WindSpeedMPH,WindSpeedGustMPH,Humidity,HourlyPrecipIn,Conditions,Clouds,dailyrainin,SoftwareType,DateUTC
2013-03-24 00:02:00,32.0,30.0,29.96,NNW,340,20.0,28.0,92,-99.99,,,-99.99,,2013-03-24 05:02:00,
2013-03-24 00:12:00,32.0,30.0,29.96,NNW,330,20.0,-999.0,92,-99.99,,,-99.99,,2013-03-24 05:12:00,
2013-03-24 00:22:00,32.0,30.0,29.95,NNW,340,20.0,27.0,92,-99.99,,,-99.99,,2013-03-24 05:22:00,
2013-03-24 00:32:00,32.0,30.0,29.95,NNW,340,21.0,28.0,92,-99.99,,,-99.99,,2013-03-24 05:32:00,
2013-03-24 00:42:00,30.0,30.0,29.95,NNW,340,22.0,28.0,100,-99.99,,,-99.99,,2013-03-24 05:42:00,
2013-03-24 00:52:00,30.0,30.0,29.95,NNW,340,23.0,28.0,100,-99.99,,,-99.99,,2013-03-24 05:52:00,
2013-03-24 01:02:00,30.0,30.0,29.95,NNW,340,23.0,28.0,100,-99.99,,,-99.99,,2013-03-24 06:02:00,
2013-03-24 01:12:00,30.0,30.0,29.95,NNW,340,25.0,-999.0,100,-99.99,,,-99.99,,2013-03-24 06:12:00,
2013-03-24 01:22:00,30.0,28.0,29.96,NNW,340,23.0,32.0,92,-99.99,,,-99.99,,2013-03-24 06:22:00,
2013-03-24 01:32:00,30.0,28.0,29.96,NNW,340,28.0,31.0,92,-99.99,,,-99.99,,2013-03-24 06:32:00,
2013-03-24 01:42:00,30.0,28.0,29.96,North,350,27.0,32.0,92,-99.99,,,-99.99,,2013-03-24 06:42:00,
2013-03-24 01:52:00,30.0,28.0,29.96,North,350,24.0,32.0,92,-99.99,,,-99.99,,2013-03-24 06:52:00,
2013-03-24 02:02:00,30.0,28.0,29.96,North,350,24.0,32.0,92,-99.99,,,-99.99,,2013-03-24 07:02:00,
2013-03-24 02:12:00,30.0,28.0,29.96,North,350,24.0,32.0,92,-99.99,,,-99.99,,2013-03-24 07:12:00,
2013-03-24 02:22:00,30.0,28.0,29.96,North,350,24.0,32.0,92,-99.99,,,-99.99,,2013-03-24 07:22:00,
2013-03-24 02:32:00,30.0,28.0,29.96,North,350,24.0,32.0,92,-99.99,,,-99.99,,2013-03-24 07:32:00,
2013-03-24 09:22:00,25.0,19.0,30.08,NNW,330,25.0,33.0,79,-99.99,,,-99.99,,2013-03-24 14:22:00,
2013-03-24 09:33:00,25.0,19.0,30.09,NNW,330,25.0,31.0,79,-99.99,,,-99.99,,2013-03-24 14:33:00,
2013-03-24 09:42:00,25.0,19.0,30.09,NNW,330,23.0,31.0,79,-99.99,,,-99.99,,2013-03-24 14:42:00,
2013-03-24 09:52:00,27.0,19.0,30.10,NNW,330,18.0,27.0,73,-99.99,,,-99.99,,2013-03-24 14:52:00,
2013-03-24 10:02:00,27.0,19.0,30.10,NNW,330,18.0,27.0,73,-99.99,,,-99.99,,2013-03-24 15:02:00,
2013-03-24 10:12:00,27.0,19.0,30.11,NW,320,20.0,27.0,73,-99.99,,,-99.99,,2013-03-24 15:12:00,
2013-03-24 10:22:00,27.0,19.0,30.11,NNW,330,24.0,28.0,73,-99.99,,,-99.99,,2013-03-24 15:22:00,
2013-03-24 10:33:00,27.0,19.0,30.10,NNW,330,22.0,30.0,73,-99.99,,,-99.99,,2013-03-24 15:33:00,
2013-03-24 10:43:00,27.0,19.0,30.11,NNW,330,23.0,30.0,73,-99.99,,,-99.99,,2013-03-24 15:43:00,
2013-03-24 10:53:00,27.0,18.0,30.10,NNW,330,23.0,31.0,68,-99.99,,,-99.99,,2013-03-24 15:53:00,
2013-03-24 11:03:00,27.0,18.0,30.10,NNW,330,23.0,31.0,68,-99.99,,,-99.99,,2013-03-24 16:03:00,
2013-03-24 11:12:00,27.0,18.0,30.11,NNW,330,22.0,33.0,68,-99.99,,,-99.99,,2013-03-24 16:12:00,
2013-03-24 11:22:00,27.0,18.0,30.12,NNW,330,25.0,32.0,68,-99.99,,,-99.99,,2013-03-24 16:22:00,
2013-03-24 11:33:00,27.0,18.0,30.13,NNW,330,23.0,30.0,68,-99.99,,,-99.99,,2013-03-24 16:33:00,
2013-03-24 11:42:00,27.0,18.0,30.13,NNW,330,28.0,32.0,68,-99.99,,,-99.99,,2013-03-24 16:42:00,
2013-03-24 11:52:00,28.0,18.0,30.14,NW,320,22.0,28.0,63,-99.99,,,-99.99,,2013-03-24 16:52:00,
2013-03-24 12:02:00,28.0,18.0,30.14,NW,320,22.0,28.0,63,-99.99,,,-99.99,,2013-03-24 17:02:00,
2013-03-24 12:12:00,28.0,18.0,30.14,NNW,330,28.0,35.0,63,-99.99,,,-99.99,,2013-03-24 17:12:00,
2013-03-24 12:22:00,28.0,18.0,30.15,NNW,340,22.0,31.0,63,-99.99,,,-99.99,,2013-03-24 17:22:00,
2013-03-24 12:33:00,28.0,18.0,30.15,NNW,330,22.0,31.0,63,-99.99,,,-99.99,,2013-03-24 17:33:00,
2013-03-24 12:42:00,28.0,19.0,30.15,NNW,330,23.0,31.0,68,-99.99,,,-99.99,,2013-03-24 17:42:00,
2013-03-24 12:52:00,28.0,19.0,30.14,NNW,340,20.0,-999.0,68,-99.99,,,-99.99,,2013-03-24 17:52:00,
2013-03-24 13:03:00,28.0,19.0,30.14,NNW,340,20.0,-999.0,68,-99.99,,,-99.99,,2013-03-24 18:03:00,
2013-03-24 13:12:00,28.0,19.0,30.14,NNW,330,17.0,30.0,68,-99.99,,,-99.99,,2013-03-24 18:12:00,
2013-03-24 13:22:00,30.0,19.0,30.14,NW,320,21.0,28.0,63,-99.99,,,-99.99,,2013-03-24 18:22:00,
2013-03-24 13:32:00,30.0,19.0,30.14,NNW,330,20.0,28.0,63,-99.99,,,-99.99,,2013-03-24 18:32:00,
2013-03-24 13:42:00,30.0,19.0,30.14,NNW,330,18.0,24.0,63,-99.99,,,-99.99,,2013-03-24 18:42:00,
2013-03-24 13:52:00,30.0,19.0,30.14,NNW,340,20.0,29.0,63,-99.99,,,-99.99,,2013-03-24 18:52:00,
2013-03-24 14:02:00,30.0,19.0,30.14,NNW,340,20.0,29.0,63,-99.99,,,-99.99,,2013-03-24 19:02:00,
2013-03-24 14:12:00,30.0,19.0,30.13,NNW,330,18.0,29.0,63,-99.99,,,-99.99,,2013-03-24 19:12:00,
2013-03-24 14:22:00,30.0,19.0,30.13,North,350,21.0,29.0,63,-99.99,,,-99.99,,2013-03-24 19:22:00,
2013-03-24 14:32:00,32.0,21.0,30.13,NNW,330,23.0,29.0,63,-99.99,,,-99.99,,2013-03-24 19:32:00,
2013-03-24 14:42:00,32.0,19.0,30.12,NNW,330,21.0,29.0,59,-99.99,,,-99.99,,2013-03-24 19:42:00,
2013-03-24 14:52:00,32.0,19.0,30.12,NNW,340,23.0,29.0,59,-99.99,,,-99.99,,2013-03-24 19:52:00,
2013-03-24 15:02:00,32.0,19.0,30.12,NNW,340,23.0,29.0,59,-99.99,,,-99.99,,2013-03-24 20:02:00,
2013-03-24 15:12:00,32.0,21.0,30.12,NNW,330,21.0,29.0,63,-99.99,,,-99.99,,2013-03-24 20:12:00,
2013-03-24 15:22:00,34.0,21.0,30.12,NW,310,20.0,29.0,59,-99.99,,,-99.99,,2013-03-24 20:22:00,
2013-03-24 15:32:00,34.0,21.0,30.13,NNW,330,22.0,28.0,59,-99.99,,,-99.99,,2013-03-24 20:32:00,
2013-03-24 15:42:00,34.0,21.0,30.12,NW,320,18.0,28.0,59,-99.99,,,-99.99,,2013-03-24 20:42:00,
2013-03-24 15:52:00,34.0,21.0,30.13,NNW,330,21.0,30.0,59,-99.99,,,-99.99,,2013-03-24 20:52:00,
2013-03-24 16:02:00,34.0,21.0,30.13,NNW,330,21.0,30.0,59,-99.99,,,-99.99,,2013-03-24 21:02:00,
2013-03-24 16:12:00,34.0,21.0,30.12,NW,320,20.0,-999.0,59,-99.99,,,-99.99,,2013-03-24 21:12:00,
2013-03-24 16:22:00,34.0,21.0,30.12,NNW,330,18.0,24.0,59,-99.99,,,-99.99,,2013-03-24 21:22:00,
2013-03-24 16:33:00,34.0,21.0,30.12,NW,310,22.0,27.0,59,-99.99,,,-99.99,,2013-03-24 21:33:00,
2013-03-24 16:43:00,34.0,21.0,30.12,NNW,330,16.0,27.0,59,-99.99,,,-99.99,,2013-03-24 21:43:00,
2013-03-24 16:52:00,36.0,21.0,30.12,NW,320,20.0,24.0,55,-99.99,,,-99.99,,2013-03-24 21:52:00,
2013-03-24 17:02:00,36.0,21.0,30.12,NW,320,20.0,24.0,55,-99.99,,,-99.99,,2013-03-24 22:02:00,
2013-03-24 17:13:00,36.0,21.0,30.12,NW,310,18.0,25.0,55,-99.99,,,-99.99,,2013-03-24 22:13:00,
2013-03-24 17:22:00,36.0,23.0,30.12,NW,320,18.0,25.0,59,-99.99,,,-99.99,,2013-03-24 22:22:00,
2013-03-24 17:33:00,36.0,21.0,30.12,NW,310,20.0,25.0,55,-99.99,,,-99.99,,2013-03-24 22:33:00,
2013-03-24 17:42:00,36.0,21.0,30.12,NNW,330,20.0,25.0,55,-99.99,,,-99.99,,2013-03-24 22:42:00,
2013-03-24 17:52:00,36.0,21.0,30.13,NW,320,21.0,27.0,55,-99.99,,,-99.99,,2013-03-24 22:52:00,
2013-03-24 18:02:00,36.0,21.0,30.13,NW,320,21.0,27.0,55,-99.99,,,-99.99,,2013-03-24 23:02:00,
2013-03-24 18:12:00,36.0,21.0,30.13,NW,320,16.0,23.0,55,-99.99,,,-99.99,,2013-03-24 23:12:00,
2013-03-24 18:22:00,36.0,21.0,30.13,NW,320,17.0,21.0,55,-99.99,,,-99.99,,2013-03-24 23:22:00,
2013-03-24 18:32:00,36.0,23.0,30.13,NW,310,16.0,23.0,59,-99.99,,,-99.99,,2013-03-24 23:32:00,
2013-03-24 18:42:00,36.0,23.0,30.13,NW,320,15.0,23.0,59,-99.99,,,-99.99,,2013-03-24 23:42:00,
2013-03-24 18:52:00,34.0,21.0,30.13,NW,310,17.0,24.0,59,-99.99,,,-99.99,,2013-03-24 23:52:00,
2013-03-24 19:02:00,34.0,21.0,30.13,NW,310,17.0,24.0,59,-99.99,,,-99.99,,2013-03-25 00:02:00,
2013-03-24 19:12:00,34.0,23.0,30.13,NW,320,14.0,-999.0,64,-99.99,,,-99.99,,2013-03-25 00:12:00,
2013-03-24 19:22:00,34.0,23.0,30.13,NW,320,13.0,20.0,64,-99.99,,,-99.99,,2013-03-25 00:22:00,
2013-03-24 19:32:00,34.0,23.0,30.14,NW,310,10.0,17.0,64,-99.99,,,-99.99,,2013-03-25 00:32:00,
2013-03-24 19:42:00,34.0,25.0,30.14,NW,310,10.0,-999.0,69,-99.99,,,-99.99,,2013-03-25 00:42:00,
2013-03-24 19:52:00,34.0,23.0,30.14,NW,310,8.0,-999.0,64,-99.99,,,-99.99,,2013-03-25 00:52:00,
2013-03-24 20:02:00,34.0,23.0,30.14,NW,310,8.0,-999.0,64,-99.99,,,-99.99,,2013-03-25 01:02:00,
2013-03-24 20:12:00,32.0,25.0,30.14,NW,310,7.0,-999.0,74,-99.99,,,-99.99,,2013-03-25 01:12:00,
2013-03-24 20:22:00,32.0,25.0,30.15,NW,310,6.0,-999.0,74,-99.99,,,-99.99,,2013-03-25 01:22:00,
2013-03-24 20:32:00,30.0,25.0,30.15,NW,310,5.0,-999.0,80,-99.99,,,-99.99,,2013-03-25 01:32:00,
2013-03-24 20:42:00,30.0,25.0,30.15,WNW,300,5.0,-999.0,80,-99.99,,,-99.99,,2013-03-25 01:42:00,
2013-03-24 20:52:00,28.0,23.0,30.15,WNW,290,6.0,-999.0,79,-99.99,,,-99.99,,2013-03-25 01:52:00,
2013-03-24 21:02:00,28.0,23.0,30.15,WNW,290,6.0,-999.0,79,-99.99,,,-99.99,,2013-03-25 02:02:00,
2013-03-24 21:12:00,28.0,25.0,30.14,WNW,290,3.0,-999.0,86,-99.99,,,-99.99,,2013-03-25 02:12:00,
2013-03-24 21:22:00,30.0,25.0,30.14,West,260,5.0,-999.0,80,-99.99,,,-99.99,,2013-03-25 02:22:00,
2013-03-24 21:32:00,28.0,23.0,30.14,West,270,6.0,-999.0,79,-99.99,,,-99.99,,2013-03-25 02:32:00,
2013-03-24 21:42:00,27.0,21.0,30.14,West,270,5.0,-999.0,79,-99.99,,,-99.99,,2013-03-25 02:42:00,
2013-03-24 21:52:00,27.0,23.0,30.15,West,280,3.0,-999.0,86,-99.99,,,-99.99,,2013-03-25 02:52:00,
2013-03-24 22:02:00,27.0,23.0,30.15,West,280,3.0,-999.0,86,-99.99,,,-99.99,,2013-03-25 03:02:00,
2013-03-24 22:12:00,27.0,23.0,30.15,WNW,290,7.0,-999.0,86,-99.99,,,-99.99,,2013-03-25 03:12:00,
2013-03-24 22:22:00,27.0,25.0,30.15,West,280,8.0,-999.0,92,-99.99,,,-99.99,,2013-03-25 03:22:00,
2013-03-24 22:33:00,27.0,25.0,30.16,West,280,8.0,-999.0,92,-99.99,,,-99.99,,2013-03-25 03:33:00,
2013-03-24 22:42:00,27.0,25.0,30.15,WNW,290,8.0,-999.0,92,-99.99,,,-99.99,,2013-03-25 03:42:00,
2013-03-24 22:52:00,27.0,25.0,30.16,WNW,290,9.0,-999.0,92,-99.99,,,-99.99,,2013-03-25 03:52:00,
2013-03-24 23:02:00,27.0,25.0,30.16,WNW,290,9.0,-999.0,92,-99.99,,,-99.99,,2013-03-25 04:02:00,
2013-03-24 23:12:00,28.0,25.0,30.16,WNW,290,9.0,-999.0,86,-99.99,,,-99.99,,2013-03-25 04:12:00,
2013-03-24 23:22:00,28.0,23.0,30.16,West,280,12.0,-999.0,79,-99.99,,,-99.99,,2013-03-25 04:22:00,
2013-03-24 23:33:00,28.0,23.0,30.16,West,280,10.0,-999.0,79,-99.99,,,-99.99,,2013-03-25 04:33:00,
2013-03-24 23:42:00,28.0,23.0,30.16,West,280,10.0,-999.0,79,-99.99,,,-99.99,,2013-03-25 04:42:00,
2013-03-24 23:52:00,28.0,23.0,30.16,West,280,10.0,-999.0,79,-99.99,,,-99.99,,2013-03-25 04:52:00,